Time;durP1;ratioP1;P1;durP2;ratioP2;P2;SDS_P1;SDS_P2;PMS_P1;PMS_P2;Temp;Humidity;BMP_temperature;BMP_pressure;BME280_temperature;BME280_humidity;BME280_pressure;Samples;Min_cycle;Max_cycle;Signal;HPM_P1;HPM_P2
2022/10/19 00:00:26;;;;;;;6.30;0.70;;;12.20;99.90;;;;;;5107266;28;20454;-77
2022/10/19 00:02:51;;;;;;;6.72;0.57;;;12.20;99.90;;;;;;5107355;28;20396;-77
2022/10/19 00:05:17;;;;;;;7.67;0.83;;;12.30;99.90;;;;;;5106951;28;20404;-76
2022/10/19 00:07:42;;;;;;;5.30;0.95;;;12.30;99.90;;;;;;5106827;28;20397;-76
2022/10/19 00:10:09;;;;;;;4.60;0.40;;;12.40;99.90;;;;;;5105850;28;20480;-77
2022/10/19 00:12:34;;;;;;;6.45;0.73;;;12.40;99.90;;;;;;5107033;28;20438;-77
2022/10/19 00:15:00;;;;;;;5.85;0.60;;;12.40;99.90;;;;;;5101000;28;20408;-77
2022/10/19 00:17:26;;;;;;;8.73;0.70;;;12.40;99.90;;;;;;5108341;28;20405;-77
2022/10/19 00:19:52;;;;;;;5.67;1.00;;;12.40;99.90;;;;;;5108307;28;20408;-76
2022/10/19 00:22:17;;;;;;;6.93;0.70;;;12.40;99.90;;;;;;5108357;28;20407;-76
2022/10/19 00:24:43;;;;;;;7.77;0.70;;;12.40;99.90;;;;;;5107136;28;20487;-76
2022/10/19 00:27:09;;;;;;;9.03;0.60;;;12.40;99.90;;;;;;5108280;28;20750;-77
2022/10/19 00:29:34;;;;;;;4.38;0.50;;;12.40;99.90;;;;;;5107414;28;20400;-76
2022/10/19 00:32:00;;;;;;;5.15;0.60;;;12.40;99.90;;;;;;5108327;28;20889;-77
2022/10/19 00:34:26;;;;;;;6.83;0.67;;;12.50;99.90;;;;;;5107861;28;20854;-77
2022/10/19 00:36:51;;;;;;;5.93;0.68;;;12.40;99.90;;;;;;5107494;28;20770;-76
2022/10/19 00:39:17;;;;;;;7.13;1.00;;;12.40;99.90;;;;;;5108180;28;20420;-77
2022/10/19 00:41:45;;;;;;;4.80;0.80;;;12.50;99.90;;;;;;5107162;28;20459;-77
2022/10/19 00:44:10;;;;;;;4.82;0.82;;;12.40;99.90;;;;;;5110163;28;20981;-77
2022/10/19 00:46:52;;;;;;;8.63;0.90;;;12.40;99.90;;;;;;5112492;28;20415;-77
2022/10/19 00:49:25;;;;;;;9.45;1.20;;;12.50;99.90;;;;;;5112084;28;20389;-77
2022/10/19 00:51:57;;;;;;;4.63;0.80;;;12.40;99.90;;;;;;5110960;28;20767;-77
2022/10/19 00:54:24;;;;;;;7.43;0.90;;;12.40;99.90;;;;;;5099897;28;20397;-77
2022/10/19 00:56:53;;;;;;;6.05;0.50;;;12.50;99.90;;;;;;5111146;28;20400;-76
2022/10/19 00:59:20;;;;;;;5.30;0.70;;;12.50;99.90;;;;;;5110534;28;20431;-77
2022/10/19 01:01:47;;;;;;;5.00;0.85;;;12.40;99.90;;;;;;5110634;28;20901;-77
2022/10/19 01:04:13;;;;;;;7.47;1.15;;;12.40;99.90;;;;;;5112107;28;20388;-77
2022/10/19 01:06:40;;;;;;;6.18;0.68;;;12.40;99.90;;;;;;5111546;28;20419;-77
2022/10/19 01:09:07;;;;;;;6.53;0.60;;;12.50;99.90;;;;;;5111760;28;21038;-77
2022/10/19 01:11:53;;;;;;;5.60;0.88;;;12.40;99.90;;;;;;5110749;28;20439;-77
2022/10/19 01:14:18;;;;;;;7.75;0.68;;;12.50;99.90;;;;;;5111640;28;20925;-77
2022/10/19 01:17:34;;;;;;;10.00;1.30;;;12.50;99.90;;;;;;5111704;28;20432;-77
2022/10/19 01:20:17;;;;;;;7.47;1.00;;;12.50;99.90;;;;;;5067752;28;20542;-77
2022/10/19 01:22:51;;;;;;;7.15;0.82;;;12.50;99.90;;;;;;5051698;28;20416;-77
2022/10/19 01:25:34;;;;;;;8.77;0.80;;;12.50;99.90;;;;;;5081571;28;21127;-77
2022/10/19 01:28:14;;;;;;;8.63;0.70;;;12.50;99.90;;;;;;5109827;28;20419;-77
2022/10/19 01:30:52;;;;;;;8.60;1.03;;;12.50;99.90;;;;;;5109898;28;20491;-77
2022/10/19 01:33:29;;;;;;;7.40;1.08;;;12.40;99.90;;;;;;5098628;28;21129;-77
2022/10/19 01:36:16;;;;;;;7.15;0.80;;;12.40;99.90;;;;;;5109480;28;20944;-77
2022/10/19 01:39:04;;;;;;;7.80;1.33;;;12.50;99.90;;;;;;5109270;28;20432;-77
2022/10/19 01:41:50;;;;;;;7.67;1.47;;;12.50;99.90;;;;;;5099229;28;20408;-77
2022/10/19 01:44:26;;;;;;;8.37;1.10;;;12.50;99.90;;;;;;5109417;28;20909;-77
2022/10/19 01:46:59;;;;;;;10.02;1.55;;;12.60;99.90;;;;;;5111311;28;20404;-77
2022/10/19 01:49:34;;;;;;;8.43;1.27;;;12.60;99.90;;;;;;5109539;28;20457;-77
2022/10/19 01:52:03;;;;;;;12.73;1.27;;;12.60;99.90;;;;;;5110874;28;20401;-77
2022/10/19 01:54:34;;;;;;;9.15;1.52;;;12.60;99.90;;;;;;5109667;28;20407;-77
2022/10/19 01:57:02;;;;;;;7.57;1.15;;;12.60;99.90;;;;;;5111110;28;20487;-77
2022/10/19 01:59:30;;;;;;;10.70;1.17;;;12.50;99.90;;;;;;5110560;28;20956;-77
2022/10/19 02:01:57;;;;;;;12.00;1.30;;;12.50;99.90;;;;;;5109220;28;20448;-77
2022/10/19 02:04:24;;;;;;;9.82;1.48;;;12.50;99.90;;;;;;5110762;28;20399;-77
2022/10/19 02:06:52;;;;;;;10.98;1.20;;;12.50;99.90;;;;;;5109047;28;20393;-77
2022/10/19 02:09:19;;;;;;;10.98;1.45;;;12.50;99.90;;;;;;5110616;28;20400;-77
2022/10/19 02:11:52;;;;;;;10.75;1.40;;;12.40;99.90;;;;;;5110692;28;20826;-77
2022/10/19 02:14:22;;;;;;;8.15;1.15;;;12.50;99.90;;;;;;5109462;28;20408;-77
2022/10/19 02:16:58;;;;;;;10.37;1.27;;;12.50;99.90;;;;;;5108937;28;20548;-77
2022/10/19 02:19:23;;;;;;;10.73;1.10;;;12.40;99.90;;;;;;5110277;28;20420;-77
2022/10/19 02:21:50;;;;;;;9.17;1.10;;;12.40;99.90;;;;;;5110525;28;20431;-77
2022/10/19 02:24:16;;;;;;;9.25;1.45;;;12.40;99.90;;;;;;5109918;28;21186;-77
2022/10/19 02:26:42;;;;;;;8.47;1.20;;;12.40;99.90;;;;;;5108631;28;20411;-77
2022/10/19 02:29:10;;;;;;;9.87;1.30;;;12.30;99.90;;;;;;5110597;28;20453;-77
2022/10/19 02:31:36;;;;;;;8.82;1.13;;;12.30;99.90;;;;;;5109838;28;21033;-77
2022/10/19 02:34:03;;;;;;;9.43;1.10;;;12.30;99.90;;;;;;5109996;28;20400;-77
2022/10/19 02:36:28;;;;;;;7.75;0.93;;;12.20;99.90;;;;;;5108475;28;20450;-77
2022/10/19 02:38:54;;;;;;;11.00;1.33;;;12.20;99.90;;;;;;5108471;28;20456;-77
2022/10/19 02:42:10;;;;;;;8.07;1.35;;;12.20;99.90;;;;;;5109960;28;20736;-77
2022/10/19 02:44:46;;;;;;;6.88;1.00;;;12.20;99.90;;;;;;5082902;28;20415;-77
2022/10/19 02:47:20;;;;;;;7.75;1.00;;;12.30;99.90;;;;;;5108449;28;20404;-77
2022/10/19 02:49:46;;;;;;;11.65;1.55;;;12.30;99.90;;;;;;5108867;28;20400;-77
2022/10/19 02:52:13;;;;;;;11.10;1.47;;;12.30;99.90;;;;;;5109440;28;20395;-77
2022/10/19 02:54:41;;;;;;;9.05;1.25;;;12.30;99.90;;;;;;5108894;28;20404;-77
2022/10/19 02:57:23;;;;;;;9.00;1.25;;;12.30;99.90;;;;;;5108300;28;20400;-77
2022/10/19 02:59:50;;;;;;;10.33;1.50;;;12.30;99.90;;;;;;5109729;28;20428;-77
2022/10/19 03:02:16;;;;;;;13.15;1.60;;;12.20;99.90;;;;;;5109043;28;20392;-77
2022/10/19 03:04:43;;;;;;;12.27;1.73;;;12.20;99.90;;;;;;5109651;28;20388;-77
2022/10/19 03:07:11;;;;;;;9.35;1.30;;;12.20;99.90;;;;;;5109264;28;20499;-77
2022/10/19 03:09:36;;;;;;;9.85;1.42;;;12.10;99.90;;;;;;5109783;28;20405;-77
2022/10/19 03:12:02;;;;;;;12.05;1.40;;;12.00;99.90;;;;;;5109572;28;20406;-77
2022/10/19 03:14:28;;;;;;;7.53;1.10;;;12.00;99.90;;;;;;5109406;28;20517;-77
2022/10/19 03:16:53;;;;;;;6.00;0.93;;;12.00;99.90;;;;;;5109327;28;20468;-76
2022/10/19 03:19:19;;;;;;;7.13;1.23;;;11.90;99.90;;;;;;5096844;28;20457;-77
2022/10/19 03:21:45;;;;;;;7.85;0.85;;;11.90;99.90;;;;;;5108857;28;20808;-77
2022/10/19 03:24:11;;;;;;;8.67;1.03;;;11.80;99.90;;;;;;5106804;28;20400;-77
2022/10/19 03:26:36;;;;;;;9.35;1.27;;;11.80;99.90;;;;;;5109619;28;20403;-77
2022/10/19 03:29:02;;;;;;;10.63;1.20;;;11.80;99.90;;;;;;5108768;28;20948;-77
2022/10/19 03:31:27;;;;;;;10.20;1.20;;;11.90;99.90;;;;;;5109048;28;20431;-77
2022/10/19 03:33:53;;;;;;;7.63;1.05;;;11.90;99.90;;;;;;5109313;28;20396;-77
2022/10/19 03:36:25;;;;;;;10.43;1.00;;;11.90;99.90;;;;;;5107296;28;20478;-77
2022/10/19 03:38:52;;;;;;;8.55;1.42;;;11.90;99.90;;;;;;5106115;28;20461;-77
2022/10/19 03:41:20;;;;;;;9.18;1.20;;;11.80;99.90;;;;;;5107675;28;20405;-77
2022/10/19 03:43:46;;;;;;;9.15;1.40;;;11.80;99.90;;;;;;5108406;28;20404;-77
2022/10/19 03:46:12;;;;;;;9.27;1.10;;;11.80;99.90;;;;;;5107363;28;20392;-77
2022/10/19 03:48:37;;;;;;;9.10;1.53;;;11.80;99.90;;;;;;5089601;28;20400;-77
2022/10/19 03:51:09;;;;;;;11.55;1.70;;;11.80;99.90;;;;;;5107323;28;20400;-77
2022/10/19 03:53:35;;;;;;;10.77;1.30;;;11.80;99.90;;;;;;5107759;28;20927;-77
2022/10/19 03:56:05;;;;;;;10.45;1.58;;;11.80;99.90;;;;;;5089680;28;20392;-77
2022/10/19 03:58:33;;;;;;;9.05;1.58;;;11.80;99.90;;;;;;5107254;28;21008;-77
2022/10/19 04:00:59;;;;;;;10.55;1.65;;;11.80;99.90;;;;;;5107638;28;20476;-77
2022/10/19 04:03:25;;;;;;;9.70;1.15;;;11.80;99.90;;;;;;5106538;28;20800;-77
2022/10/19 04:05:51;;;;;;;9.40;1.20;;;11.80;99.90;;;;;;5107732;28;20498;-77
2022/10/19 04:08:17;;;;;;;9.13;1.57;;;11.80;99.90;;;;;;5107100;28;20395;-77
2022/10/19 04:10:43;;;;;;;9.23;1.10;;;11.80;99.90;;;;;;5107689;28;20404;-76
2022/10/19 04:13:09;;;;;;;7.90;1.00;;;11.80;99.90;;;;;;5107609;28;20401;-77
2022/10/19 04:15:35;;;;;;;8.17;1.50;;;11.80;99.90;;;;;;5107238;28;20466;-77
2022/10/19 04:18:01;;;;;;;8.68;1.05;;;11.90;99.90;;;;;;5107687;28;20507;-77
2022/10/19 04:20:26;;;;;;;11.18;1.35;;;11.90;99.90;;;;;;5112315;28;20411;-77
2022/10/19 04:22:52;;;;;;;10.43;1.30;;;11.90;99.90;;;;;;5111223;28;21025;-77
2022/10/19 04:25:18;;;;;;;11.23;1.50;;;11.90;99.90;;;;;;5112574;28;20400;-77
2022/10/19 04:27:44;;;;;;;15.70;1.93;;;11.90;99.90;;;;;;5112742;28;20790;-77
2022/10/19 04:30:10;;;;;;;10.38;1.27;;;11.90;99.90;;;;;;5112646;28;20483;-77
2022/10/19 04:32:36;;;;;;;11.68;1.65;;;12.00;99.90;;;;;;5111019;28;20407;-77
2022/10/19 04:35:01;;;;;;;9.82;1.52;;;12.00;99.90;;;;;;5111912;28;20400;-77
2022/10/19 04:37:27;;;;;;;13.57;1.67;;;12.00;99.90;;;;;;5110711;28;20460;-77
2022/10/19 04:39:52;;;;;;;9.90;1.33;;;12.10;99.90;;;;;;5103097;28;20441;-77
2022/10/19 04:42:18;;;;;;;9.57;1.23;;;12.00;99.90;;;;;;5106698;28;20407;-77
2022/10/19 04:44:43;;;;;;;9.37;1.67;;;12.00;99.90;;;;;;5112266;28;20401;-77
2022/10/19 04:47:09;;;;;;;8.63;1.17;;;12.00;99.90;;;;;;5112177;28;20838;-77
2022/10/19 04:49:35;;;;;;;10.57;1.40;;;12.10;99.90;;;;;;5112326;28;20395;-77
2022/10/19 04:52:00;;;;;;;7.63;1.08;;;12.10;99.90;;;;;;5111804;28;20585;-77
2022/10/19 04:54:26;;;;;;;9.93;1.30;;;12.10;99.90;;;;;;5112066;28;20766;-73
2022/10/19 04:56:52;;;;;;;12.07;1.30;;;12.10;99.90;;;;;;5110628;28;20487;-73
2022/10/19 04:59:18;;;;;;;9.60;1.38;;;12.10;99.90;;;;;;5112230;28;20428;-74
2022/10/19 05:01:44;;;;;;;9.63;1.27;;;12.10;99.90;;;;;;5108479;28;20422;-74
2022/10/19 05:04:10;;;;;;;8.10;1.00;;;12.10;99.90;;;;;;5107193;28;20409;-72
2022/10/19 05:06:36;;;;;;;8.52;1.30;;;12.10;99.90;;;;;;5111767;28;20407;-72
2022/10/19 05:09:01;;;;;;;8.15;1.00;;;12.10;99.90;;;;;;5112764;28;20753;-71
2022/10/19 05:11:27;;;;;;;9.93;1.13;;;12.10;99.90;;;;;;5106831;27;20397;-71
2022/10/19 05:13:55;;;;;;;9.73;1.17;;;12.20;99.90;;;;;;5109701;28;20404;-72
2022/10/19 05:16:22;;;;;;;11.73;1.27;;;12.20;99.90;;;;;;5109427;27;20755;-72
2022/10/19 05:18:49;;;;;;;9.95;1.38;;;12.20;99.90;;;;;;5111593;28;20416;-72
2022/10/19 05:21:16;;;;;;;17.93;1.77;;;12.20;99.90;;;;;;5111118;28;20400;-71
2022/10/19 05:23:42;;;;;;;10.25;1.02;;;12.20;99.90;;;;;;5117813;27;20394;-71
2022/10/19 05:26:16;;;;;;;15.00;2.28;;;12.20;99.90;;;;;;5117235;27;20901;-78
2022/10/19 05:28:42;;;;;;;10.40;1.20;;;12.20;99.90;;;;;;5116829;27;20444;-71
2022/10/19 05:31:11;;;;;;;9.88;1.20;;;12.10;99.90;;;;;;5114931;27;20446;-70
2022/10/19 05:33:38;;;;;;;9.55;1.48;;;12.10;99.90;;;;;;5116328;27;20919;-70
2022/10/19 05:36:20;;;;;;;8.07;1.08;;;12.10;99.90;;;;;;5114092;27;20396;-72
2022/10/19 05:38:48;;;;;;;9.40;1.23;;;12.10;99.90;;;;;;5111465;28;20427;-71
2022/10/19 05:41:15;;;;;;;8.40;1.03;;;12.10;99.90;;;;;;5111029;28;20412;-71
2022/10/19 05:43:41;;;;;;;12.23;1.40;;;12.00;99.90;;;;;;5109319;27;20428;-72
2022/10/19 05:46:10;;;;;;;8.23;0.90;;;12.00;99.90;;;;;;5110612;28;20392;-73
2022/10/19 05:48:36;;;;;;;9.90;1.50;;;12.00;99.90;;;;;;5114485;27;20620;-71
2022/10/19 05:51:04;;;;;;;8.77;1.10;;;12.00;99.90;;;;;;5110331;28;20400;-72
2022/10/19 05:53:30;;;;;;;10.90;1.33;;;12.00;99.90;;;;;;5111581;27;20766;-77
2022/10/19 05:55:56;;;;;;;9.27;1.00;;;12.00;99.90;;;;;;5097686;28;20392;-72
2022/10/19 05:58:22;;;;;;;9.47;1.23;;;12.00;99.90;;;;;;5110574;28;20452;-72
2022/10/19 06:00:56;;;;;;;7.55;1.05;;;11.90;99.90;;;;;;5110750;28;20518;-71
2022/10/19 06:03:22;;;;;;;6.13;0.87;;;12.00;99.90;;;;;;5111055;27;20963;-72
2022/10/19 06:05:48;;;;;;;8.70;1.10;;;12.00;99.90;;;;;;5113144;27;20388;-72
2022/10/19 06:08:15;;;;;;;8.63;1.23;;;12.00;99.90;;;;;;5107482;28;20416;-71
2022/10/19 06:10:42;;;;;;;8.35;1.08;;;12.00;99.90;;;;;;5108145;28;20428;-71
2022/10/19 06:13:08;;;;;;;7.65;0.95;;;12.00;99.90;;;;;;5109414;28;20981;-71
2022/10/19 06:15:35;;;;;;;6.82;1.58;;;12.00;99.90;;;;;;5103609;27;20482;-71
2022/10/19 06:18:03;;;;;;;10.93;1.27;;;12.00;99.90;;;;;;5110028;28;20416;-72
2022/10/19 06:20:29;;;;;;;7.45;1.08;;;12.00;99.90;;;;;;5114171;27;20981;-72
2022/10/19 06:22:55;;;;;;;7.07;0.80;;;12.00;99.90;;;;;;5109579;28;20468;-72
2022/10/19 06:25:20;;;;;;;9.17;1.17;;;12.10;99.90;;;;;;5118456;27;20832;-72
2022/10/19 06:27:46;;;;;;;7.00;1.00;;;12.10;99.90;;;;;;5110401;28;20400;-72
2022/10/19 06:30:12;;;;;;;10.63;1.40;;;12.10;99.90;;;;;;5116416;27;20403;-72
2022/10/19 06:32:38;;;;;;;8.93;1.35;;;12.10;99.90;;;;;;5109719;28;20453;-71
2022/10/19 06:35:04;;;;;;;7.90;1.17;;;12.10;99.90;;;;;;5114627;27;20412;-71
2022/10/19 06:37:29;;;;;;;8.23;1.60;;;12.10;99.90;;;;;;5106042;27;20414;-82
2022/10/19 06:39:55;;;;;;;7.00;1.00;;;12.10;99.90;;;;;;5120028;27;20785;-71
2022/10/19 06:42:20;;;;;;;7.87;0.93;;;12.10;99.90;;;;;;5111204;27;20816;-72
2022/10/19 06:44:46;;;;;;;7.25;1.02;;;12.20;99.90;;;;;;5120323;27;20411;-72
2022/10/19 06:47:12;;;;;;;8.57;1.27;;;12.20;99.90;;;;;;5109889;28;20491;-72
2022/10/19 06:49:37;;;;;;;7.50;0.83;;;12.20;99.90;;;;;;5109308;28;20427;-70
2022/10/19 06:52:04;;;;;;;9.10;1.35;;;12.20;99.90;;;;;;5108943;28;20465;-71
2022/10/19 06:54:30;;;;;;;10.20;1.40;;;12.20;99.90;;;;;;5106146;28;20424;-72
2022/10/19 06:56:56;;;;;;;9.48;1.55;;;12.20;99.90;;;;;;5108294;28;20441;-71
2022/10/19 06:59:21;;;;;;;9.70;1.37;;;12.20;99.90;;;;;;5109561;28;20423;-71
2022/10/19 07:01:47;;;;;;;18.20;2.00;;;12.20;99.90;;;;;;5109765;28;20427;-70
2022/10/19 07:04:12;;;;;;;12.20;1.27;;;12.20;99.90;;;;;;5109544;28;20769;-70
2022/10/19 07:06:38;;;;;;;12.10;1.40;;;12.20;99.90;;;;;;5109690;28;20399;-70
2022/10/19 07:09:04;;;;;;;10.32;1.63;;;12.30;99.90;;;;;;5109511;28;20397;-70
2022/10/19 07:11:29;;;;;;;14.77;2.00;;;12.30;99.90;;;;;;5108902;28;20403;-72
2022/10/19 07:13:55;;;;;;;7.93;1.50;;;12.30;99.90;;;;;;5109503;28;20423;-71
2022/10/19 07:16:21;;;;;;;8.43;0.73;;;12.30;99.90;;;;;;5109016;28;20401;-71
2022/10/19 07:18:49;;;;;;;8.73;1.30;;;12.30;99.90;;;;;;5109319;28;20431;-71
2022/10/19 07:21:15;;;;;;;7.15;0.93;;;12.40;99.90;;;;;;5108989;27;20400;-71
2022/10/19 07:23:43;;;;;;;8.88;1.00;;;12.40;99.90;;;;;;5109094;28;20920;-71
2022/10/19 07:26:12;;;;;;;9.63;2.00;;;12.40;99.90;;;;;;5109271;28;20396;-77
2022/10/19 07:28:39;;;;;;;11.23;1.25;;;12.40;99.90;;;;;;5109564;28;20396;-73
2022/10/19 07:31:11;;;;;;;15.40;1.73;;;12.40;99.90;;;;;;5108089;28;20415;-74
2022/10/19 07:33:37;;;;;;;7.82;1.20;;;12.50;99.90;;;;;;5108053;28;20412;-72
2022/10/19 07:36:06;;;;;;;9.35;1.00;;;12.50;99.90;;;;;;5108812;28;20405;-79
2022/10/19 07:38:32;;;;;;;12.68;1.50;;;12.50;99.90;;;;;;5107358;28;20424;-74
2022/10/19 07:41:12;;;;;;;10.13;1.50;;;12.60;99.90;;;;;;5109122;28;20404;-73
2022/10/19 07:43:39;;;;;;;9.63;1.55;;;12.60;99.90;;;;;;5109044;28;20408;-70
2022/10/19 07:46:16;;;;;;;9.67;1.83;;;12.60;99.90;;;;;;5102165;28;20433;-70
2022/10/19 07:48:43;;;;;;;10.10;1.30;;;12.70;99.90;;;;;;5103061;28;20396;-71
2022/10/19 07:51:10;;;;;;;9.13;1.52;;;12.70;99.90;;;;;;5108332;28;20902;-71
2022/10/19 07:53:37;;;;;;;12.85;1.85;;;12.70;99.90;;;;;;5107948;28;20411;-71
2022/10/19 07:56:11;;;;;;;10.27;1.25;;;12.70;99.90;;;;;;5108887;28;20397;-71
2022/10/19 07:58:37;;;;;;;8.52;1.20;;;12.70;99.90;;;;;;5108659;28;20909;-70
2022/10/19 08:01:10;;;;;;;7.72;1.15;;;12.80;99.90;;;;;;5108920;28;20400;-70
2022/10/19 08:03:36;;;;;;;7.78;1.00;;;12.80;99.90;;;;;;5107004;28;20972;-70
2022/10/19 08:06:07;;;;;;;9.48;1.10;;;12.80;99.90;;;;;;5101397;28;20500;-71
2022/10/19 08:08:34;;;;;;;9.13;1.30;;;12.90;99.90;;;;;;5105628;28;20405;-70
2022/10/19 08:11:11;;;;;;;10.10;1.27;;;12.90;99.90;;;;;;5101102;28;20415;-71
2022/10/19 08:13:37;;;;;;;9.13;1.20;;;12.90;99.90;;;;;;5106920;28;21070;-71
2022/10/19 08:16:04;;;;;;;10.63;1.20;;;13.00;99.90;;;;;;5102891;28;20421;-70
2022/10/19 08:18:30;;;;;;;12.95;1.08;;;13.10;99.90;;;;;;5106489;28;20439;-71
2022/10/19 08:20:56;;;;;;;9.00;1.00;;;13.10;99.90;;;;;;5102349;28;20416;-70
2022/10/19 08:23:22;;;;;;;10.35;1.00;;;13.20;99.90;;;;;;5094722;28;20408;-69
2022/10/19 08:25:48;;;;;;;6.63;1.03;;;13.20;99.90;;;;;;5098642;28;20471;-70
2022/10/19 08:28:14;;;;;;;7.65;1.35;;;13.20;99.90;;;;;;5106439;28;20423;-71
2022/10/19 08:30:39;;;;;;;8.93;1.53;;;13.20;99.90;;;;;;5098718;28;20406;-72
2022/10/19 08:33:07;;;;;;;8.55;1.00;;;13.20;99.90;;;;;;5098946;28;20393;-72
2022/10/19 08:35:33;;;;;;;9.00;1.20;;;13.20;99.90;;;;;;5105759;28;20411;-72
2022/10/19 08:37:59;;;;;;;6.85;1.05;;;13.30;99.90;;;;;;5108357;28;20396;-72
2022/10/19 08:40:27;;;;;;;7.15;0.93;;;13.30;99.90;;;;;;5102093;28;20409;-70
2022/10/19 08:43:03;;;;;;;7.93;1.45;;;13.30;99.90;;;;;;5107575;28;20752;-71
2022/10/19 08:46:03;;;;;;;8.88;0.90;;;13.30;99.90;;;;;;5099635;28;21288;-71
2022/10/19 08:48:32;;;;;;;7.93;0.97;;;13.40;99.90;;;;;;5092187;28;20429;-70
2022/10/19 08:50:59;;;;;;;7.30;0.87;;;13.40;99.90;;;;;;5102575;28;20421;-70
2022/10/19 08:54:01;;;;;;;8.77;1.02;;;13.40;99.90;;;;;;5106459;28;20434;-70
2022/10/19 08:56:32;;;;;;;8.27;1.02;;;13.50;99.90;;;;;;5103201;28;20511;-70
2022/10/19 08:59:32;;;;;;;20.52;2.03;;;13.50;99.90;;;;;;5106547;28;20442;-70
2022/10/19 09:02:10;;;;;;;10.33;1.30;;;13.50;99.90;;;;;;5094952;28;20414;-70
2022/10/19 09:04:40;;;;;;;7.70;1.10;;;13.60;99.90;;;;;;5105459;28;20423;-69
2022/10/19 09:07:23;;;;;;;10.43;1.30;;;13.70;99.90;;;;;;5108804;28;20424;-71
2022/10/19 09:10:09;;;;;;;9.57;1.00;;;13.70;99.90;;;;;;5105762;28;21007;-70
2022/10/19 09:12:52;;;;;;;6.65;0.85;;;13.80;99.90;;;;;;5100057;28;20433;-70
2022/10/19 09:15:24;;;;;;;7.28;1.10;;;13.90;99.90;;;;;;5109628;28;20491;-70
2022/10/19 09:17:49;;;;;;;7.82;1.10;;;13.90;99.90;;;;;;5108584;28;20436;-70
2022/10/19 09:20:16;;;;;;;10.73;1.80;;;14.00;99.90;;;;;;5110209;28;20867;-70
2022/10/19 09:22:43;;;;;;;10.60;1.20;;;14.00;99.90;;;;;;5109748;28;20412;-70
2022/10/19 09:25:21;;;;;;;8.48;1.90;;;14.00;99.90;;;;;;5107189;28;20409;-74
2022/10/19 09:27:51;;;;;;;8.52;1.20;;;14.00;99.90;;;;;;5098958;28;20413;-71
2022/10/19 09:30:20;;;;;;;8.45;1.00;;;14.00;99.90;;;;;;5110294;28;20914;-70
2022/10/19 09:32:48;;;;;;;6.10;1.27;;;14.10;99.90;;;;;;5108144;28;20435;-71
2022/10/19 09:35:28;;;;;;;7.95;0.93;;;14.10;99.90;;;;;;5110744;28;20566;-70
2022/10/19 09:37:54;;;;;;;6.60;1.50;;;14.10;99.90;;;;;;5103963;28;20427;-70
2022/10/19 09:40:28;;;;;;;9.15;1.20;;;14.10;99.90;;;;;;5109153;28;20412;-70
2022/10/19 09:42:58;;;;;;;11.45;1.10;;;14.20;99.90;;;;;;5107679;28;20778;-71
2022/10/19 09:45:44;;;;;;;8.88;0.88;;;14.30;99.90;;;;;;5109414;28;20441;-74
2022/10/19 09:48:28;;;;;;;7.80;1.10;;;14.30;99.90;;;;;;5100512;28;20436;-71
2022/10/19 09:51:11;;;;;;;6.68;1.02;;;14.40;99.90;;;;;;5110460;28;20392;-74
2022/10/19 09:53:36;;;;;;;7.83;0.87;;;14.40;99.90;;;;;;5091783;28;20422;-73
2022/10/19 09:56:05;;;;;;;6.80;0.80;;;14.40;99.90;;;;;;5105927;28;20401;-72
2022/10/19 09:58:30;;;;;;;7.00;1.20;;;14.40;99.90;;;;;;5099533;28;20477;-75
2022/10/19 10:00:57;;;;;;;10.07;1.55;;;14.50;99.90;;;;;;5109668;28;20416;-77
2022/10/19 10:03:38;;;;;;;7.78;0.88;;;14.40;99.90;;;;;;5106104;28;20503;-70
2022/10/19 10:06:14;;;;;;;7.40;1.00;;;14.40;99.90;;;;;;5107229;28;20969;-72
2022/10/19 10:08:46;;;;;;;8.10;1.13;;;14.40;99.90;;;;;;5106079;28;20424;-72
2022/10/19 10:11:14;;;;;;;8.00;1.10;;;14.30;99.90;;;;;;5110713;28;20436;-76
2022/10/19 10:13:48;;;;;;;7.97;1.00;;;14.40;99.90;;;;;;5103807;28;20412;-72
2022/10/19 10:16:16;;;;;;;8.35;1.40;;;14.40;99.90;;;;;;5101877;28;20467;-73
2022/10/19 10:18:59;;;;;;;9.37;1.43;;;14.40;99.90;;;;;;5105434;28;20479;-75
2022/10/19 10:21:32;;;;;;;8.07;1.13;;;14.40;99.90;;;;;;5107448;28;20968;-71
2022/10/19 10:24:19;;;;;;;10.68;1.65;;;14.40;99.90;;;;;;5102697;28;20434;-73
2022/10/19 10:26:54;;;;;;;7.75;1.17;;;14.40;99.90;;;;;;5107326;28;20826;-74
2022/10/19 10:29:24;;;;;;;7.43;0.82;;;14.40;99.90;;;;;;5102440;27;20414;-70
2022/10/19 10:32:20;;;;;;;7.43;0.95;;;14.40;99.90;;;;;;5108747;28;20404;-72
2022/10/19 10:35:01;;;;;;;7.15;1.10;;;14.30;99.90;;;;;;5102195;28;20569;-71
2022/10/19 10:37:29;;;;;;;10.20;1.20;;;14.30;99.90;;;;;;5109564;28;20408;-71
2022/10/19 10:39:56;;;;;;;5.72;0.77;;;14.40;99.90;;;;;;5106481;28;20432;-71
2022/10/19 10:42:40;;;;;;;9.63;1.38;;;14.40;99.90;;;;;;5109815;28;20397;-71
2022/10/19 10:45:16;;;;;;;8.50;1.38;;;14.40;99.90;;;;;;5102919;28;20553;-72
2022/10/19 10:47:46;;;;;;;6.63;1.20;;;14.40;99.90;;;;;;5105845;28;20440;-72
2022/10/19 10:50:19;;;;;;;5.95;0.88;;;14.40;99.90;;;;;;5109514;28;20396;-73
2022/10/19 10:52:58;;;;;;;7.60;1.60;;;14.40;99.90;;;;;;5106572;28;20924;-71
2022/10/19 10:55:25;;;;;;;5.80;0.90;;;14.40;99.90;;;;;;5109304;28;20397;-70
2022/10/19 10:58:04;;;;;;;9.20;1.10;;;14.40;99.90;;;;;;5098871;28;20419;-71
2022/10/19 11:00:33;;;;;;;9.68;1.00;;;14.30;99.90;;;;;;5105605;28;20419;-70
2022/10/19 11:03:13;;;;;;;8.93;1.02;;;14.30;99.90;;;;;;5098624;28;20448;-72
2022/10/19 11:05:55;;;;;;;7.05;0.90;;;14.30;99.90;;;;;;5108722;28;20800;-72
2022/10/19 11:08:38;;;;;;;9.93;1.27;;;14.40;99.90;;;;;;5104887;28;20409;-73
2022/10/19 11:11:19;;;;;;;8.23;1.08;;;14.40;99.90;;;;;;5096935;28;20431;-71
2022/10/19 11:13:50;;;;;;;8.43;1.30;;;14.40;99.90;;;;;;5092900;28;20438;-71
2022/10/19 11:16:18;;;;;;;10.77;1.27;;;14.40;99.90;;;;;;5107072;28;20898;-71
2022/10/19 11:19:04;;;;;;;7.70;0.90;;;14.40;99.90;;;;;;5097283;28;20496;-71
2022/10/19 11:21:33;;;;;;;7.68;0.95;;;14.40;99.90;;;;;;5106015;28;20413;-71
2022/10/19 11:24:23;;;;;;;8.23;0.93;;;14.40;99.90;;;;;;5100025;28;20404;-71
2022/10/19 11:26:58;;;;;;;7.90;1.00;;;14.50;99.90;;;;;;5092895;28;20932;-72
2022/10/19 11:29:36;;;;;;;7.22;1.27;;;14.60;99.90;;;;;;5109084;28;20482;-71
2022/10/19 11:32:02;;;;;;;5.53;1.10;;;14.70;99.90;;;;;;5103125;28;20970;-72
2022/10/19 11:34:46;;;;;;;11.02;1.00;;;14.80;99.90;;;;;;5105207;28;20403;-71
2022/10/19 11:37:29;;;;;;;6.28;0.90;;;14.80;99.90;;;;;;5097936;28;20437;-72
2022/10/19 11:40:07;;;;;;;6.57;0.80;;;14.80;99.90;;;;;;5096000;28;20843;-72
2022/10/19 11:42:43;;;;;;;5.93;0.83;;;14.90;99.90;;;;;;5106305;28;20423;-71
2022/10/19 11:45:22;;;;;;;7.53;1.10;;;15.00;99.90;;;;;;5105434;28;20445;-71
2022/10/19 11:48:08;;;;;;;8.05;1.10;;;15.00;99.90;;;;;;5106829;28;20412;-71
2022/10/19 11:50:46;;;;;;;8.75;0.88;;;15.10;99.90;;;;;;5107367;28;20416;-71
2022/10/19 11:53:17;;;;;;;6.93;1.20;;;15.10;99.90;;;;;;5101370;28;20425;-71
2022/10/19 11:55:59;;;;;;;5.22;1.00;;;15.10;99.90;;;;;;5106824;28;20498;-71
2022/10/19 11:58:40;;;;;;;5.25;0.70;;;15.10;99.90;;;;;;5107299;28;20426;-71
2022/10/19 12:01:41;;;;;;;11.00;1.60;;;15.00;99.90;;;;;;5094085;28;20412;-72
2022/10/19 12:04:06;;;;;;;6.60;0.90;;;14.90;99.90;;;;;;5103675;28;20425;-72
2022/10/19 12:06:57;;;;;;;8.13;0.97;;;14.90;99.90;;;;;;5095281;28;20429;-71
2022/10/19 12:09:59;;;;;;;7.32;1.20;;;14.90;99.90;;;;;;5099177;28;20427;-71
2022/10/19 12:12:24;;;;;;;5.47;1.30;;;14.80;99.90;;;;;;5053696;28;20407;-71
2022/10/19 12:14:55;;;;;;;8.07;1.20;;;14.80;99.90;;;;;;5094984;28;20439;-72
2022/10/19 12:17:36;;;;;;;5.50;1.03;;;14.80;99.90;;;;;;5107069;28;20400;-72
2022/10/19 12:20:27;;;;;;;6.43;1.20;;;14.80;99.90;;;;;;5105499;28;20428;-72
2022/10/19 12:22:53;;;;;;;6.03;0.80;;;14.90;99.90;;;;;;5100513;28;20440;-72
2022/10/19 12:25:19;;;;;;;5.50;1.05;;;15.00;99.90;;;;;;5104007;28;20439;-72
2022/10/19 12:27:47;;;;;;;7.43;0.70;;;15.20;99.90;;;;;;5106918;28;20951;-72
2022/10/19 12:30:22;;;;;;;9.75;1.08;;;15.20;99.90;;;;;;5097392;28;20415;-71
2022/10/19 12:32:58;;;;;;;6.25;0.80;;;15.20;99.90;;;;;;5106924;28;20924;-72
2022/10/19 12:35:23;;;;;;;6.43;1.00;;;15.10;99.90;;;;;;5103970;28;20420;-72
2022/10/19 12:38:24;;;;;;;6.05;0.93;;;15.60;99.90;;;;;;5106678;28;20418;-72
2022/10/19 12:41:08;;;;;;;6.68;0.90;;;16.00;99.90;;;;;;5104357;28;20519;-72
2022/10/19 12:43:52;;;;;;;7.47;1.00;;;16.00;99.90;;;;;;5106868;28;20413;-72
2022/10/19 12:46:26;;;;;;;5.65;0.90;;;15.80;99.90;;;;;;5098107;28;20449;-71
2022/10/19 12:49:27;;;;;;;6.68;0.70;;;15.60;99.90;;;;;;5110272;28;20487;-71
2022/10/19 12:51:58;;;;;;;5.03;0.70;;;15.50;99.90;;;;;;5104250;28;20407;-72
2022/10/19 12:54:27;;;;;;;5.40;1.10;;;15.60;99.90;;;;;;5092068;28;20944;-71
2022/10/19 12:56:55;;;;;;;8.10;1.00;;;15.90;99.90;;;;;;5103545;28;20414;-72
2022/10/19 12:59:27;;;;;;;5.15;0.80;;;16.70;99.90;;;;;;5098247;28;20515;-72
2022/10/19 13:01:55;;;;;;;3.88;0.82;;;17.70;99.90;;;;;;5105534;28;20424;-72
2022/10/19 13:04:23;;;;;;;7.20;0.73;;;18.50;99.90;;;;;;5096099;28;20423;-72